Ns Clipper — A8GW6 — position and weather

sailwx.info

Track history (hours):
 
Tides and Currents Weather Stations Pressure Air Temp Water Temp Dewpoint Dewpoint Depression Visibility Wind Speed Wind Dir Waves Ship Positions

Ns Clipper

Last reported at 2017-Feb-13 06:08 UTC. Time now 2017-Feb-19 21:09 UTC.
Position N 01°15' E 104°02'.

Length 244 m; draft 8.8 m.

Type: Ship. MMSI: 636012661.

Date/timePositionNaut miles runAvg speedWind from/ knotsBaromVisibWave heightAir tempDewpointWater temp
2017-Feb-13 06:08N 01°15' E 104°02'712.1
2017-Feb-13 05:33N 01°13' E 103°56'1111.5
2017-Feb-13 04:33N 01°07' E 103°45'10 9.7
2017-Feb-13 03:33N 01°05' E 103°36'1212.5
2017-Feb-13 02:33N 01°11' E 103°26'7412.2
2017-Feb-12 20:30N 01°49' E 102°22'  
2017-Feb-09 23:09N 01°59' E 102°12'911.9
2017-Feb-09 22:26N 01°54' E 102°19'1112.4
2017-Feb-09 21:33N 01°49' E 102°29'8413.3
2017-Feb-09 15:15N 01°09' E 103°43'7 0.9
2017-Feb-09 07:27N 01°13' E 103°49'3 0.1
2017-Feb-07 10:20N 01°15' E 103°46'5 2.8
2017-Feb-07 08:33N 01°12' E 103°51'6 1.4
2017-Feb-07 04:20N 01°16' E 103°55'0 0.1
2017-Feb-07 00:17N 01°16' E 103°55'0 0.0
2017-Feb-06 23:17N 01°16' E 103°55'0 0.0
2017-Feb-06 22:20N 01°16' E 103°55'0 0.0
2017-Feb-06 19:14N 01°16' E 103°55'0 0.0
2017-Feb-06 10:26N 01°16' E 103°55'0 0.0
2017-Feb-06 04:29N 01°16' E 103°55'0 0.0
2017-Feb-06 03:32N 01°16' E 103°55'0 0.0
2017-Feb-05 19:29N 01°16' E 103°55'0 0.0
2017-Feb-05 14:20N 01°16' E 103°55'0 0.0
2017-Feb-05 10:32N 01°16' E 103°55'0 0.1
2017-Feb-05 06:32N 01°16' E 103°55'0 0.0
2017-Feb-05 04:32N 01°16' E 103°55'0 0.0
2017-Feb-04 19:26N 01°16' E 103°55'0 0.0
2017-Feb-04 18:29N 01°16' E 103°55'0 0.0
2017-Feb-04 17:32N 01°16' E 103°55'0 0.0
2017-Feb-04 15:26N 01°16' E 103°55'0 0.0
2017-Feb-04 12:14N 01°16' E 103°55'0 0.0
2017-Feb-04 04:08N 01°16' E 103°55'0 0.0
2017-Feb-04 03:32N 01°16' E 103°55'0 0.0
2017-Feb-04 01:20N 01°16' E 103°55'0 0.0
2017-Feb-03 22:17N 01°16' E 103°55'0 0.0
2017-Feb-03 21:26N 01°16' E 103°55'  
Track history (hours):
 
Tides and Currents Weather Stations Pressure Air Temp Water Temp Dewpoint Dewpoint Depression Visibility Wind Speed Wind Dir Waves Ship Positions

Ns Clipper

Last reported at 2017-Feb-13 06:08 UTC. Time now 2017-Feb-19 21:09 UTC.
Position N 01°15' E 104°02'.

Length 244 m; draft 8.8 m.

Type: Ship. MMSI: 636012661.

Date/timePositionNaut miles runAvg speedWind from/ knotsBaromVisibWave heightAir tempDewpointWater temp
2017-Feb-13 06:08N 01°15' E 104°02'712.1
2017-Feb-13 05:33N 01°13' E 103°56'1111.5
2017-Feb-13 04:33N 01°07' E 103°45'10 9.7
2017-Feb-13 03:33N 01°05' E 103°36'1212.5
2017-Feb-13 02:33N 01°11' E 103°26'7412.2
2017-Feb-12 20:30N 01°49' E 102°22'  
2017-Feb-09 23:09N 01°59' E 102°12'911.9
2017-Feb-09 22:26N 01°54' E 102°19'1112.4
2017-Feb-09 21:33N 01°49' E 102°29'8413.3
2017-Feb-09 15:15N 01°09' E 103°43'7 0.9
2017-Feb-09 07:27N 01°13' E 103°49'3 0.1
2017-Feb-07 10:20N 01°15' E 103°46'5 2.8
2017-Feb-07 08:33N 01°12' E 103°51'6 1.4
2017-Feb-07 04:20N 01°16' E 103°55'0 0.1
2017-Feb-07 00:17N 01°16' E 103°55'0 0.0
2017-Feb-06 23:17N 01°16' E 103°55'0 0.0
2017-Feb-06 22:20N 01°16' E 103°55'0 0.0
2017-Feb-06 19:14N 01°16' E 103°55'0 0.0
2017-Feb-06 10:26N 01°16' E 103°55'0 0.0
2017-Feb-06 04:29N 01°16' E 103°55'0 0.0
2017-Feb-06 03:32N 01°16' E 103°55'0 0.0
2017-Feb-05 19:29N 01°16' E 103°55'0 0.0
2017-Feb-05 14:20N 01°16' E 103°55'0 0.0
2017-Feb-05 10:32N 01°16' E 103°55'0 0.1
2017-Feb-05 06:32N 01°16' E 103°55'0 0.0
2017-Feb-05 04:32N 01°16' E 103°55'0 0.0
2017-Feb-04 19:26N 01°16' E 103°55'0 0.0
2017-Feb-04 18:29N 01°16' E 103°55'0 0.0
2017-Feb-04 17:32N 01°16' E 103°55'0 0.0
2017-Feb-04 15:26N 01°16' E 103°55'0 0.0
2017-Feb-04 12:14N 01°16' E 103°55'0 0.0
2017-Feb-04 04:08N 01°16' E 103°55'0 0.0
2017-Feb-04 03:32N 01°16' E 103°55'0 0.0
2017-Feb-04 01:20N 01°16' E 103°55'0 0.0
2017-Feb-03 22:17N 01°16' E 103°55'0 0.0
2017-Feb-03 21:26N 01°16' E 103°55'  

Dump ship's entire track history